RAAF Base Amberley
YAMB : now visible

Airfield :











YOU CAN JOIN US ON...

 
LOGIN :

Register | Disclaimer

   EN    FR    IT 

 









Legend :    VFR   Marginal VFR   IFR   Intensive IFR   Very Intensive IFR
Visi :
Ceiling :
>= 8 km
>= 3000ft
5 to 8 km
1000 to 3000 ft
1500m to 5 km
500 to 1000 ft
800 to 1500m
200 to 500 ft
< 800m
< 200 ft
Symbols :   Thunderstorms  Fog  Heavy snow  Heavy precipitations  Wind > 20 kt






- Airport Elevation : 91 ft


YAMB - RAAF Base Amberley

CURRENT METAR :
  • 190130Z AUTO 06007KT 030V090 9999 // NCD 27/12 Q1021

EXPIRED METARs :
  • 190100Z AUTO 08006KT 060V120 9999 // NCD 27/11 Q1021
  • 190030Z AUTO 06006KT 9999 // NCD 26/12 Q1022
  • 190000Z AUTO 21004KT 9999 // NCD 25/13 Q1022
  • 182330Z AUTO 23004KT 210V290 9999 // NCD 24/13 Q1022
  • 182300Z AUTO 25003KT 9999 // NCD 23/12 Q1023
  • 182230Z AUTO 30004KT 270V350 9999 // NCD 22/13 Q1023

TAF TAF YAMB
Valid from the 19 at 00:00 until the 20 at 00:00 UTC


182314Z 1900/2000 32006KT CAVOK
FM190400 07010KT CAVOK
FM191200 VRB03KT 9999 FEW010
PROB30 1915/1922 0300 FG
YBBB FIR / Oceania



MET'MAP, your aeronautical weather chart ! - Copyright ORBIFLY December 2007 - Disclaimer

ORBIFLY MET'MAP TEAM :

Programming & Development : Alexandra Zaïnal
Concept & original design : Baudouin d'Aumeries
Assistance for programming : Marc-Olivier Méhu
Technical & hardware support : Manuel Goepfert

Contact : metmap@orbifly.com




SOURCES & CREDITS :

   NOAA       Earth
Advisory